Time;durP1;ratioP1;P1;durP2;ratioP2;P2;SDS_P1;SDS_P2;PMS_P1;PMS_P2;Temp;Humidity;BMP_temperature;BMP_pressure;BME280_temperature;BME280_humidity;BME280_pressure;Samples;Min_cycle;Max_cycle;Signal;HPM_P1;HPM_P2
2021/04/10 00:01:41;;;;;;;14.23;7.50;;;;;;;;;;5038040;28;20472;-68
2021/04/10 00:04:08;;;;;;;15.80;7.90;;;;;;;;;;5038451;28;20607;-67
2021/04/10 00:06:34;;;;;;;11.43;7.40;;;;;;;;;;5020655;28;20478;-68
2021/04/10 00:09:01;;;;;;;11.47;7.20;;;;;;;;;;5020960;28;20512;-71
2021/04/10 00:11:28;;;;;;;10.80;6.00;;;;;;;;;;5023259;28;20564;-69
2021/04/10 00:13:55;;;;;;;9.07;6.37;;;;;;;;;;5026921;28;20452;-67
2021/04/10 00:16:21;;;;;;;12.93;6.43;;;;;;;;;;5037851;28;20486;-69
2021/04/10 00:18:49;;;;;;;11.70;6.47;;;;;;;;;;5038152;28;20448;-69
2021/04/10 00:21:16;;;;;;;13.73;6.53;;;;;;;;;;5018936;28;20472;-67
2021/04/10 00:23:43;;;;;;;13.83;6.27;;;;;;;;;;5038639;28;20544;-69
2021/04/10 00:26:10;;;;;;;10.43;6.80;;;;;;;;;;5036332;28;20453;-67
2021/04/10 00:28:37;;;;;;;19.07;6.90;;;;;;;;;;5037551;28;21014;-71
2021/04/10 00:31:07;;;;;;;8.90;6.97;;;;;;;;;;5033249;28;20473;-69
2021/04/10 00:33:34;;;;;;;12.00;6.70;;;;;;;;;;5035780;28;20516;-67
2021/04/10 00:36:01;;;;;;;10.77;7.53;;;;;;;;;;5034891;28;20516;-71
2021/04/10 00:38:29;;;;;;;15.43;7.83;;;;;;;;;;5036200;28;20445;-69
2021/04/10 00:40:56;;;;;;;11.60;8.50;;;;;;;;;;5031945;28;20468;-67
2021/04/10 00:43:23;;;;;;;14.67;8.40;;;;;;;;;;5022846;28;20528;-66
2021/04/10 00:45:49;;;;;;;13.93;8.53;;;;;;;;;;5035696;28;20535;-68
2021/04/10 00:48:16;;;;;;;13.03;8.20;;;;;;;;;;5033983;28;20512;-67
2021/04/10 00:50:43;;;;;;;15.53;9.23;;;;;;;;;;5035901;28;20518;-68
2021/04/10 00:53:10;;;;;;;13.20;8.80;;;;;;;;;;5033271;28;20547;-67
2021/04/10 00:55:39;;;;;;;15.53;9.30;;;;;;;;;;5026421;28;20563;-68
2021/04/10 00:58:06;;;;;;;14.07;9.00;;;;;;;;;;5016063;28;20941;-73
2021/04/10 01:00:32;;;;;;;13.83;9.80;;;;;;;;;;5030100;28;21066;-69
2021/04/10 01:02:59;;;;;;;13.80;8.73;;;;;;;;;;5035867;28;20519;-67
2021/04/10 01:05:26;;;;;;;15.17;9.50;;;;;;;;;;5030456;28;20569;-67
2021/04/10 01:07:53;;;;;;;17.87;10.57;;;;;;;;;;5036604;28;20890;-71
2021/04/10 01:10:20;;;;;;;15.50;10.17;;;;;;;;;;5029360;28;20463;-74
2021/04/10 01:12:52;;;;;;;15.97;10.47;;;;;;;;;;5036980;28;20484;-68
2021/04/10 01:15:22;;;;;;;19.03;11.40;;;;;;;;;;5028801;28;20936;-69
2021/04/10 01:17:51;;;;;;;13.97;10.80;;;;;;;;;;5023064;28;20445;-67
2021/04/10 01:20:29;;;;;;;13.73;10.73;;;;;;;;;;5028488;28;20448;-67
2021/04/10 01:23:14;;;;;;;15.67;10.90;;;;;;;;;;5031645;28;20524;-67
2021/04/10 01:25:47;;;;;;;20.70;12.30;;;;;;;;;;5035518;28;20487;-66
2021/04/10 01:28:19;;;;;;;17.00;11.20;;;;;;;;;;5036124;28;20559;-67
2021/04/10 01:30:46;;;;;;;17.90;11.33;;;;;;;;;;5035947;28;20487;-68
2021/04/10 01:33:15;;;;;;;13.57;10.57;;;;;;;;;;5035138;28;20459;-67
2021/04/10 01:35:48;;;;;;;18.23;10.33;;;;;;;;;;5036278;28;20453;-67
2021/04/10 01:38:16;;;;;;;13.63;10.50;;;;;;;;;;5033922;28;20457;-67
2021/04/10 01:40:43;;;;;;;15.80;11.10;;;;;;;;;;5016771;28;20477;-66
2021/04/10 01:43:12;;;;;;;13.00;9.73;;;;;;;;;;5031170;28;20449;-67
2021/04/10 01:45:39;;;;;;;13.63;9.33;;;;;;;;;;5029907;28;20464;-68
2021/04/10 01:48:09;;;;;;;16.67;10.37;;;;;;;;;;5036570;28;20488;-69
2021/04/10 01:50:36;;;;;;;12.90;9.50;;;;;;;;;;5029840;28;20588;-67
2021/04/10 01:53:04;;;;;;;16.47;9.60;;;;;;;;;;5034300;28;20891;-73
2021/04/10 01:55:30;;;;;;;17.13;11.47;;;;;;;;;;5023394;28;20946;-71
2021/04/10 01:57:57;;;;;;;14.47;9.80;;;;;;;;;;5017909;28;20548;-71
2021/04/10 02:00:25;;;;;;;14.60;9.87;;;;;;;;;;5030587;28;20972;-68
2021/04/10 02:02:53;;;;;;;12.07;9.90;;;;;;;;;;5036389;28;20963;-67
2021/04/10 02:05:21;;;;;;;15.50;10.17;;;;;;;;;;5020030;28;20544;-70
2021/04/10 02:07:48;;;;;;;12.83;8.73;;;;;;;;;;5018476;28;20445;-67
2021/04/10 02:10:15;;;;;;;16.20;9.20;;;;;;;;;;5034440;28;20563;-67
2021/04/10 02:12:43;;;;;;;11.40;8.23;;;;;;;;;;5041135;28;20505;-68
2021/04/10 02:15:10;;;;;;;17.53;8.23;;;;;;;;;;5037770;28;20539;-69
2021/04/10 02:17:37;;;;;;;10.97;8.13;;;;;;;;;;5043584;28;20569;-69
2021/04/10 02:20:09;;;;;;;10.57;7.47;;;;;;;;;;5046028;28;20445;-67
2021/04/10 02:22:36;;;;;;;11.37;8.93;;;;;;;;;;5048133;28;20505;-67
2021/04/10 02:25:03;;;;;;;16.90;8.20;;;;;;;;;;5040302;28;20460;-67
2021/04/10 02:27:30;;;;;;;10.23;8.43;;;;;;;;;;5046543;28;20564;-68
2021/04/10 02:29:58;;;;;;;10.37;7.90;;;;;;;;;;5039517;28;20508;-69
2021/04/10 02:32:28;;;;;;;10.20;8.17;;;;;;;;;;5048016;28;20480;-71
2021/04/10 02:35:02;;;;;;;11.90;8.30;;;;;;;;;;5037521;28;20449;-69
2021/04/10 02:37:30;;;;;;;14.43;8.70;;;;;;;;;;5046607;28;20440;-70
2021/04/10 02:39:58;;;;;;;13.30;9.13;;;;;;;;;;5038326;28;20445;-69
2021/04/10 02:42:25;;;;;;;9.37;8.30;;;;;;;;;;5018944;28;20825;-70
2021/04/10 02:44:53;;;;;;;14.80;8.90;;;;;;;;;;5030057;28;20445;-72
2021/04/10 02:47:23;;;;;;;11.53;9.67;;;;;;;;;;5035216;28;20548;-70
2021/04/10 02:49:52;;;;;;;13.43;9.30;;;;;;;;;;5025069;28;20500;-68
2021/04/10 02:52:21;;;;;;;13.80;9.87;;;;;;;;;;5035666;28;20523;-69
2021/04/10 02:54:49;;;;;;;17.00;9.10;;;;;;;;;;5035450;28;20497;-69
2021/04/10 02:57:18;;;;;;;12.80;9.40;;;;;;;;;;5035816;28;20802;-66
2021/04/10 02:59:46;;;;;;;13.40;9.70;;;;;;;;;;5034474;28;20535;-70
2021/04/10 03:02:13;;;;;;;13.50;9.27;;;;;;;;;;5028941;28;20495;-70
2021/04/10 03:04:42;;;;;;;13.87;10.03;;;;;;;;;;5028682;28;20455;-68
2021/04/10 03:07:09;;;;;;;10.47;9.10;;;;;;;;;;5034298;28;20535;-69
2021/04/10 03:09:37;;;;;;;13.90;10.40;;;;;;;;;;5034076;28;20580;-66
2021/04/10 03:12:05;;;;;;;15.50;11.50;;;;;;;;;;5034088;28;20558;-66
2021/04/10 03:14:32;;;;;;;19.07;10.73;;;;;;;;;;5033267;28;20532;-67
2021/04/10 03:16:59;;;;;;;13.10;9.43;;;;;;;;;;5034903;28;20448;-69
2021/04/10 03:19:26;;;;;;;14.13;9.50;;;;;;;;;;5028550;28;20448;-67
2021/04/10 03:21:53;;;;;;;12.47;8.73;;;;;;;;;;5034728;28;20559;-67
2021/04/10 03:24:20;;;;;;;14.27;9.33;;;;;;;;;;5033459;28;20644;-67
2021/04/10 03:26:46;;;;;;;15.03;7.60;;;;;;;;;;5031638;28;20594;-67
2021/04/10 03:29:13;;;;;;;12.90;7.53;;;;;;;;;;5029687;28;20481;-68
2021/04/10 03:31:41;;;;;;;16.30;8.27;;;;;;;;;;5018022;28;20916;-67
2021/04/10 03:34:08;;;;;;;13.20;8.80;;;;;;;;;;5030550;23;21038;-66
2021/04/10 03:36:35;;;;;;;17.03;8.73;;;;;;;;;;4993703;28;20473;-66
2021/04/10 03:39:01;;;;;;;16.90;8.17;;;;;;;;;;4990953;28;20447;-66
2021/04/10 03:41:28;;;;;;;10.33;7.30;;;;;;;;;;4993286;28;20455;-66
2021/04/10 03:43:55;;;;;;;10.63;7.70;;;;;;;;;;4988824;28;20510;-66
2021/04/10 03:46:21;;;;;;;18.40;8.30;;;;;;;;;;4984816;28;20451;-66
2021/04/10 03:48:49;;;;;;;12.17;7.37;;;;;;;;;;4981130;28;20482;-66
2021/04/10 03:51:15;;;;;;;10.17;7.27;;;;;;;;;;4979925;28;20535;-66
2021/04/10 03:53:42;;;;;;;11.70;7.10;;;;;;;;;;4981767;28;20482;-66
2021/04/10 03:56:09;;;;;;;10.50;6.70;;;;;;;;;;4994325;28;20451;-67
2021/04/10 03:58:35;;;;;;;8.40;5.80;;;;;;;;;;4995242;28;20446;-66
2021/04/10 04:01:02;;;;;;;8.00;6.03;;;;;;;;;;4995123;28;21040;-66
2021/04/10 04:03:29;;;;;;;18.20;7.60;;;;;;;;;;4994899;28;20900;-67
2021/04/10 04:05:56;;;;;;;12.67;7.20;;;;;;;;;;4994941;28;20819;-66
2021/04/10 04:08:23;;;;;;;15.53;6.83;;;;;;;;;;4992857;28;20451;-66
2021/04/10 04:10:49;;;;;;;11.07;7.20;;;;;;;;;;4983679;28;20459;-65
2021/04/10 04:13:16;;;;;;;13.50;6.70;;;;;;;;;;4979488;28;20537;-66
2021/04/10 04:15:43;;;;;;;10.80;5.73;;;;;;;;;;4994168;28;20553;-66
2021/04/10 04:18:09;;;;;;;11.37;6.17;;;;;;;;;;4994128;28;20512;-66
2021/04/10 04:20:36;;;;;;;11.50;6.07;;;;;;;;;;4994946;28;20460;-66
2021/04/10 04:23:03;;;;;;;12.03;5.70;;;;;;;;;;4991946;28;20958;-66
2021/04/10 04:25:30;;;;;;;8.80;5.50;;;;;;;;;;4988337;28;20846;-67
2021/04/10 04:27:57;;;;;;;8.70;5.40;;;;;;;;;;4995225;28;20538;-67
2021/04/10 04:30:24;;;;;;;11.93;5.53;;;;;;;;;;4994405;28;20577;-67
2021/04/10 04:32:50;;;;;;;8.70;5.60;;;;;;;;;;4994986;28;20534;-67
2021/04/10 04:35:17;;;;;;;11.40;5.73;;;;;;;;;;4977640;28;20479;-67
2021/04/10 04:37:44;;;;;;;13.27;5.63;;;;;;;;;;4974968;28;20447;-67
2021/04/10 04:40:12;;;;;;;11.53;5.60;;;;;;;;;;4991238;28;20442;-67
2021/04/10 04:42:39;;;;;;;7.97;5.00;;;;;;;;;;4995031;28;20485;-67
2021/04/10 04:45:06;;;;;;;9.17;5.77;;;;;;;;;;4982222;28;20502;-67
2021/04/10 04:47:33;;;;;;;8.30;5.30;;;;;;;;;;4994032;28;20451;-66
2021/04/10 04:50:00;;;;;;;13.50;5.33;;;;;;;;;;4994515;28;20532;-66
2021/04/10 04:52:30;;;;;;;11.00;6.20;;;;;;;;;;4994647;28;20830;-66
2021/04/10 04:54:56;;;;;;;10.60;5.30;;;;;;;;;;4985068;28;20545;-65
2021/04/10 04:57:24;;;;;;;10.20;5.30;;;;;;;;;;4994301;28;20447;-65
2021/04/10 04:59:50;;;;;;;7.83;5.47;;;;;;;;;;4979864;28;20540;-66
2021/04/10 05:02:17;;;;;;;7.97;4.70;;;;;;;;;;4993751;28;20545;-66
2021/04/10 05:04:44;;;;;;;6.57;4.70;;;;;;;;;;4991467;28;20524;-66
2021/04/10 05:07:10;;;;;;;10.33;5.00;;;;;;;;;;4994230;28;20450;-65
2021/04/10 05:09:37;;;;;;;8.10;5.57;;;;;;;;;;4993210;28;20482;-66
2021/04/10 05:12:04;;;;;;;11.50;5.03;;;;;;;;;;4994666;28;20455;-66
2021/04/10 05:14:31;;;;;;;12.57;4.80;;;;;;;;;;4990336;28;20871;-67
2021/04/10 05:16:58;;;;;;;9.67;4.83;;;;;;;;;;4994272;28;20589;-66
2021/04/10 05:19:25;;;;;;;11.03;5.00;;;;;;;;;;4979902;28;20440;-67
2021/04/10 05:21:51;;;;;;;9.90;5.00;;;;;;;;;;4975452;28;20462;-66
2021/04/10 05:24:18;;;;;;;8.60;5.07;;;;;;;;;;4983940;28;20475;-66
2021/04/10 05:26:44;;;;;;;9.63;4.73;;;;;;;;;;4993266;28;20565;-67
2021/04/10 05:29:11;;;;;;;9.83;4.90;;;;;;;;;;4992740;28;20544;-65
2021/04/10 05:31:39;;;;;;;9.07;4.13;;;;;;;;;;4993848;28;20538;-66
2021/04/10 05:34:05;;;;;;;10.43;4.97;;;;;;;;;;4992902;28;20912;-65
2021/04/10 05:36:32;;;;;;;11.47;5.00;;;;;;;;;;4993894;28;20557;-67
2021/04/10 05:38:58;;;;;;;10.20;4.60;;;;;;;;;;4979207;28;20462;-66
2021/04/10 05:41:25;;;;;;;6.80;4.40;;;;;;;;;;4993437;28;20450;-67
2021/04/10 05:43:52;;;;;;;8.97;4.53;;;;;;;;;;4993196;28;20593;-66
2021/04/10 05:46:18;;;;;;;9.20;4.70;;;;;;;;;;4993505;28;20450;-66
2021/04/10 05:48:46;;;;;;;6.93;4.70;;;;;;;;;;4985281;28;20483;-67
2021/04/10 05:51:12;;;;;;;11.47;5.20;;;;;;;;;;4988433;28;21088;-67
2021/04/10 05:53:42;;;;;;;10.83;4.80;;;;;;;;;;4984956;28;20458;-67
2021/04/10 05:56:09;;;;;;;6.93;3.93;;;;;;;;;;4974083;28;20888;-67
2021/04/10 05:58:35;;;;;;;11.80;4.70;;;;;;;;;;4979021;28;20451;-67
2021/04/10 06:01:02;;;;;;;8.70;4.90;;;;;;;;;;4991563;28;20796;-66
2021/04/10 06:03:29;;;;;;;11.13;4.30;;;;;;;;;;4991102;28;20447;-66
2021/04/10 06:05:57;;;;;;;7.13;5.07;;;;;;;;;;4991487;28;20475;-67
2021/04/10 06:08:23;;;;;;;6.20;4.40;;;;;;;;;;4986848;28;20537;-68
2021/04/10 06:10:50;;;;;;;8.10;4.10;;;;;;;;;;4991374;28;20455;-68
2021/04/10 06:13:18;;;;;;;9.00;4.70;;;;;;;;;;4981824;28;21022;-66
2021/04/10 06:15:45;;;;;;;7.80;4.17;;;;;;;;;;4983156;28;20478;-66
2021/04/10 06:18:12;;;;;;;8.87;4.73;;;;;;;;;;4991085;28;20457;-66
2021/04/10 06:20:39;;;;;;;5.07;3.70;;;;;;;;;;4983871;28;20458;-66
2021/04/10 06:23:06;;;;;;;9.63;4.90;;;;;;;;;;4981693;28;20814;-66
2021/04/10 06:25:33;;;;;;;7.47;4.80;;;;;;;;;;4992677;28;20470;-66
2021/04/10 06:28:01;;;;;;;12.30;3.00;;;;;;;;;;4980004;28;20974;-66
2021/04/10 06:30:28;;;;;;;5.60;2.43;;;;;;;;;;4993453;28;20490;-66
2021/04/10 06:32:54;;;;;;;6.57;2.60;;;;;;;;;;4983168;28;20542;-65
2021/04/10 06:35:21;;;;;;;9.77;2.50;;;;;;;;;;4973533;28;20487;-65
2021/04/10 06:37:48;;;;;;;5.20;2.33;;;;;;;;;;4980949;28;20461;-65
2021/04/10 06:40:16;;;;;;;5.73;1.83;;;;;;;;;;4991098;28;20468;-65
2021/04/10 06:42:43;;;;;;;5.23;2.63;;;;;;;;;;4991874;28;20844;-65
2021/04/10 06:45:10;;;;;;;4.80;1.87;;;;;;;;;;4992536;28;20550;-65
2021/04/10 06:47:38;;;;;;;4.47;1.60;;;;;;;;;;4991651;28;20808;-66
2021/04/10 06:50:06;;;;;;;4.17;1.97;;;;;;;;;;4992275;28;20581;-65
2021/04/10 06:52:36;;;;;;;4.37;1.77;;;;;;;;;;4990226;28;20938;-64
2021/04/10 06:55:04;;;;;;;6.83;1.77;;;;;;;;;;4973500;28;20542;-63
2021/04/10 06:57:36;;;;;;;4.80;1.67;;;;;;;;;;4976024;28;20973;-64
2021/04/10 07:00:04;;;;;;;5.07;1.83;;;;;;;;;;4987978;28;20489;-64
2021/04/10 07:02:31;;;;;;;5.20;2.00;;;;;;;;;;4991734;28;20862;-63
2021/04/10 07:04:58;;;;;;;4.40;1.57;;;;;;;;;;4992828;28;20892;-64
2021/04/10 07:07:28;;;;;;;4.50;1.53;;;;;;;;;;4989511;28;20459;-64
2021/04/10 07:09:55;;;;;;;5.40;1.90;;;;;;;;;;4988569;28;20493;-64
2021/04/10 07:12:22;;;;;;;3.63;1.60;;;;;;;;;;4973042;28;20517;-64
2021/04/10 07:14:49;;;;;;;5.07;1.67;;;;;;;;;;4992376;28;20478;-63
2021/04/10 07:17:16;;;;;;;4.60;1.50;;;;;;;;;;4991698;28;20442;-64
2021/04/10 07:19:43;;;;;;;4.07;1.70;;;;;;;;;;4974806;28;21021;-64
2021/04/10 07:22:11;;;;;;;6.00;2.17;;;;;;;;;;4985645;28;20849;-64
2021/04/10 07:24:39;;;;;;;3.90;1.73;;;;;;;;;;4991668;28;20485;-63
2021/04/10 07:27:06;;;;;;;3.63;1.90;;;;;;;;;;4991321;28;20461;-64
2021/04/10 07:29:34;;;;;;;3.47;1.60;;;;;;;;;;4991137;28;20498;-64
2021/04/10 07:32:02;;;;;;;4.93;1.80;;;;;;;;;;4990691;28;20546;-63
2021/04/10 07:34:30;;;;;;;3.80;1.40;;;;;;;;;;4988217;28;20482;-64
2021/04/10 07:36:57;;;;;;;4.63;1.70;;;;;;;;;;4992012;28;20550;-64
2021/04/10 07:39:24;;;;;;;3.40;1.60;;;;;;;;;;4988727;28;20546;-63
2021/04/10 07:42:00;;;;;;;4.60;2.03;;;;;;;;;;4992016;28;20837;-62
2021/04/10 07:44:36;;;;;;;2.70;1.03;;;;;;;;;;4989615;28;20509;-62
2021/04/10 07:47:05;;;;;;;7.10;1.80;;;;;;;;;;4989300;28;20454;-62
2021/04/10 07:49:32;;;;;;;2.70;1.40;;;;;;;;;;4989862;28;20569;-62
2021/04/10 07:52:01;;;;;;;3.37;1.17;;;;;;;;;;4990901;28;20452;-63
2021/04/10 07:54:28;;;;;;;4.80;2.20;;;;;;;;;;4991318;28;20475;-62
2021/04/10 07:56:56;;;;;;;4.00;1.43;;;;;;;;;;4978483;28;20510;-62
2021/04/10 07:59:23;;;;;;;6.97;2.10;;;;;;;;;;4991119;28;20467;-62
2021/04/10 08:01:50;;;;;;;3.67;1.77;;;;;;;;;;4983452;28;20531;-62
2021/04/10 08:04:19;;;;;;;3.60;1.40;;;;;;;;;;4972308;28;20471;-62
2021/04/10 08:06:57;;;;;;;5.33;1.80;;;;;;;;;;4979652;28;20812;-62
2021/04/10 08:09:33;;;;;;;4.17;1.50;;;;;;;;;;4974383;28;20540;-62
2021/04/10 08:12:00;;;;;;;3.07;1.30;;;;;;;;;;4989409;28;20458;-62
2021/04/10 08:14:38;;;;;;;3.33;1.70;;;;;;;;;;4988001;28;20991;-62
2021/04/10 08:17:05;;;;;;;4.60;1.57;;;;;;;;;;4993066;28;20446;-62
2021/04/10 08:19:33;;;;;;;6.60;2.83;;;;;;;;;;4983204;28;20451;-65
2021/04/10 08:21:59;;;;;;;4.20;2.63;;;;;;;;;;4977839;28;20435;-65
2021/04/10 08:24:28;;;;;;;6.10;3.50;;;;;;;;;;4993497;28;20509;-64
2021/04/10 08:26:55;;;;;;;4.53;2.80;;;;;;;;;;4994167;28;20454;-65
2021/04/10 08:29:22;;;;;;;8.73;3.10;;;;;;;;;;4986140;28;20490;-64
2021/04/10 08:31:49;;;;;;;7.70;2.50;;;;;;;;;;4975824;28;20447;-62
2021/04/10 08:34:16;;;;;;;6.50;2.90;;;;;;;;;;4984986;28;20485;-65
2021/04/10 08:36:44;;;;;;;5.03;2.80;;;;;;;;;;4990735;28;20446;-64
2021/04/10 08:39:11;;;;;;;6.50;2.20;;;;;;;;;;4985382;28;20447;-62
2021/04/10 08:41:37;;;;;;;4.80;1.63;;;;;;;;;;4994236;28;20451;-63
2021/04/10 08:44:05;;;;;;;3.40;1.37;;;;;;;;;;4981899;28;20478;-62
2021/04/10 08:46:32;;;;;;;3.80;1.40;;;;;;;;;;4993558;28;20893;-61
2021/04/10 08:49:00;;;;;;;3.50;1.43;;;;;;;;;;4984739;28;20562;-62
2021/04/10 08:51:28;;;;;;;2.80;1.33;;;;;;;;;;4991764;28;20520;-63
2021/04/10 08:53:57;;;;;;;4.10;1.30;;;;;;;;;;4990712;28;20450;-62
2021/04/10 08:56:25;;;;;;;7.07;1.17;;;;;;;;;;4994656;28;20450;-62
2021/04/10 08:58:52;;;;;;;6.93;1.50;;;;;;;;;;4981666;28;20451;-63
2021/04/10 09:01:19;;;;;;;5.83;1.67;;;;;;;;;;4974790;28;20966;-63
2021/04/10 09:03:54;;;;;;;3.07;1.60;;;;;;;;;;4989765;28;20455;-62
2021/04/10 09:06:35;;;;;;;3.00;0.80;;;;;;;;;;4990305;28;20453;-63
2021/04/10 09:09:17;;;;;;;3.30;1.20;;;;;;;;;;4981730;28;20582;-63
2021/04/10 09:11:46;;;;;;;2.47;1.40;;;;;;;;;;4992262;28;20454;-63
2021/04/10 09:14:13;;;;;;;2.83;1.20;;;;;;;;;;4993152;28;20470;-62
2021/04/10 09:16:48;;;;;;;2.97;1.00;;;;;;;;;;4993427;28;20549;-62
2021/04/10 09:19:16;;;;;;;3.90;1.37;;;;;;;;;;4976894;28;20447;-62
2021/04/10 09:21:47;;;;;;;5.90;2.03;;;;;;;;;;4988458;28;20864;-62
2021/04/10 09:24:24;;;;;;;5.07;2.10;;;;;;;;;;4987517;28;20484;-62
2021/04/10 09:26:56;;;;;;;3.77;1.73;;;;;;;;;;4993166;28;20581;-61
2021/04/10 09:29:23;;;;;;;5.40;1.87;;;;;;;;;;4992757;28;20482;-61
2021/04/10 09:31:50;;;;;;;3.23;1.73;;;;;;;;;;4988613;28;20989;-61
2021/04/10 09:34:35;;;;;;;6.10;1.93;;;;;;;;;;4991668;28;20490;-62
2021/04/10 09:37:02;;;;;;;5.00;2.10;;;;;;;;;;4974886;28;20463;-62
2021/04/10 09:39:47;;;;;;;5.07;1.60;;;;;;;;;;4990928;28;20463;-62
2021/04/10 09:42:32;;;;;;;7.50;1.90;;;;;;;;;;4980698;28;20949;-62
2021/04/10 09:45:05;;;;;;;4.57;2.00;;;;;;;;;;4985641;28;20480;-64
2021/04/10 09:47:47;;;;;;;7.57;3.90;;;;;;;;;;4992765;28;20447;-63
2021/04/10 09:50:14;;;;;;;7.13;4.50;;;;;;;;;;4992817;28;20493;-63
2021/04/10 09:52:41;;;;;;;6.30;3.33;;;;;;;;;;4986175;28;20573;-63
2021/04/10 09:55:09;;;;;;;14.27;9.17;;;;;;;;;;4992266;28;20605;-63
2021/04/10 09:57:36;;;;;;;3.80;2.10;;;;;;;;;;4988945;28;20508;-63
2021/04/10 10:00:04;;;;;;;6.67;2.20;;;;;;;;;;4992536;28;20512;-63
2021/04/10 10:02:30;;;;;;;3.30;1.73;;;;;;;;;;4980652;28;20455;-63
2021/04/10 10:04:57;;;;;;;3.50;2.03;;;;;;;;;;4982257;28;20470;-65
2021/04/10 10:07:24;;;;;;;5.20;2.23;;;;;;;;;;4976318;28;20459;-65
2021/04/10 10:10:06;;;;;;;4.67;1.93;;;;;;;;;;4980930;28;20606;-64
2021/04/10 10:12:32;;;;;;;4.90;2.10;;;;;;;;;;4973929;28;20438;-64
2021/04/10 10:15:00;;;;;;;5.00;1.97;;;;;;;;;;4986498;28;20472;-65
2021/04/10 10:17:30;;;;;;;6.50;2.50;;;;;;;;;;4973461;28;20506;-64
2021/04/10 10:20:09;;;;;;;5.27;2.00;;;;;;;;;;4981045;28;20452;-66
2021/04/10 10:22:36;;;;;;;5.10;1.80;;;;;;;;;;4973344;28;20463;-66
2021/04/10 10:25:02;;;;;;;3.93;2.17;;;;;;;;;;4989082;28;20475;-65
2021/04/10 10:27:33;;;;;;;2.73;2.07;;;;;;;;;;4991263;28;21130;-66
2021/04/10 10:30:02;;;;;;;7.73;2.67;;;;;;;;;;4985013;28;20506;-66
2021/04/10 10:32:28;;;;;;;4.63;2.33;;;;;;;;;;4982225;28;20546;-64
2021/04/10 10:34:55;;;;;;;4.73;2.23;;;;;;;;;;4991584;28;20513;-63
2021/04/10 10:37:24;;;;;;;5.70;1.77;;;;;;;;;;4992473;28;20505;-63
2021/04/10 10:39:51;;;;;;;3.70;2.20;;;;;;;;;;4991767;28;20447;-63
2021/04/10 10:42:25;;;;;;;3.53;1.77;;;;;;;;;;4991850;28;20454;-64
2021/04/10 10:44:51;;;;;;;4.33;2.10;;;;;;;;;;4991531;28;20481;-64
2021/04/10 10:47:19;;;;;;;3.03;1.87;;;;;;;;;;4991860;28;20457;-64
2021/04/10 10:49:49;;;;;;;3.90;2.17;;;;;;;;;;4984883;28;20479;-64
2021/04/10 10:52:16;;;;;;;3.43;1.60;;;;;;;;;;4973070;28;20469;-64
2021/04/10 10:54:42;;;;;;;4.60;2.60;;;;;;;;;;4990790;28;20528;-64
2021/04/10 10:57:09;;;;;;;10.73;2.40;;;;;;;;;;4983178;28;20454;-64
2021/04/10 10:59:36;;;;;;;3.53;1.77;;;;;;;;;;4985242;28;20956;-64
2021/04/10 11:02:03;;;;;;;4.03;1.90;;;;;;;;;;4973093;28;20457;-64
2021/04/10 11:04:31;;;;;;;7.50;2.10;;;;;;;;;;4991679;28;20553;-63
2021/04/10 11:06:59;;;;;;;12.00;2.10;;;;;;;;;;4990123;28;20455;-64
2021/04/10 11:09:26;;;;;;;3.70;1.60;;;;;;;;;;4974703;28;20483;-64
2021/04/10 11:11:54;;;;;;;6.07;2.30;;;;;;;;;;4992289;28;20450;-64
2021/04/10 11:14:21;;;;;;;3.90;1.70;;;;;;;;;;4990709;28;20471;-64
2021/04/10 11:16:48;;;;;;;4.30;1.87;;;;;;;;;;4991409;28;20519;-64
2021/04/10 11:19:25;;;;;;;6.93;1.90;;;;;;;;;;4975348;28;20454;-64
2021/04/10 11:21:53;;;;;;;4.00;1.67;;;;;;;;;;4972397;28;20436;-67
2021/04/10 11:24:19;;;;;;;4.30;1.83;;;;;;;;;;4974882;28;20475;-64
2021/04/10 11:26:53;;;;;;;4.63;1.83;;;;;;;;;;4971704;28;20939;-64
2021/04/10 11:29:37;;;;;;;4.20;1.70;;;;;;;;;;4988793;28;20492;-64
2021/04/10 11:32:05;;;;;;;5.00;2.30;;;;;;;;;;4986481;28;20981;-64
2021/04/10 11:34:32;;;;;;;6.33;1.70;;;;;;;;;;4979535;28;20474;-64
2021/04/10 11:37:00;;;;;;;4.30;2.30;;;;;;;;;;4992047;28;20442;-63
2021/04/10 11:39:27;;;;;;;3.23;1.90;;;;;;;;;;4975634;28;21025;-63
2021/04/10 11:41:54;;;;;;;5.07;2.17;;;;;;;;;;4972679;28;20457;-63
2021/04/10 11:44:21;;;;;;;5.00;2.03;;;;;;;;;;4987095;28;20477;-63
2021/04/10 11:46:48;;;;;;;3.80;2.27;;;;;;;;;;4987317;28;20458;-63
2021/04/10 11:49:24;;;;;;;4.57;1.90;;;;;;;;;;4975335;28;20853;-63
2021/04/10 11:51:51;;;;;;;6.70;2.73;;;;;;;;;;4980316;28;21017;-63
2021/04/10 11:54:31;;;;;;;6.20;2.40;;;;;;;;;;4995861;28;20469;-63
2021/04/10 11:56:58;;;;;;;4.00;2.07;;;;;;;;;;4990127;28;20507;-63
2021/04/10 11:59:31;;;;;;;3.57;1.60;;;;;;;;;;4990905;28;20529;-63
2021/04/10 12:02:01;;;;;;;4.07;1.80;;;;;;;;;;4991182;28;21027;-64
2021/04/10 12:04:28;;;;;;;8.53;1.50;;;;;;;;;;4975783;28;20982;-63
2021/04/10 12:07:04;;;;;;;5.23;1.80;;;;;;;;;;4979125;28;20465;-63
2021/04/10 12:09:33;;;;;;;3.50;1.50;;;;;;;;;;4995114;28;20474;-63
2021/04/10 12:12:00;;;;;;;3.60;1.60;;;;;;;;;;4980958;28;20833;-63
2021/04/10 12:14:27;;;;;;;3.93;1.83;;;;;;;;;;4975923;28;20530;-64
2021/04/10 12:16:53;;;;;;;2.40;1.27;;;;;;;;;;4988253;28;20541;-63
2021/04/10 12:19:21;;;;;;;6.50;1.83;;;;;;;;;;4995400;28;20446;-63
2021/04/10 12:21:48;;;;;;;4.33;1.60;;;;;;;;;;4982924;28;20872;-63
2021/04/10 12:24:15;;;;;;;4.07;1.60;;;;;;;;;;4975402;28;20475;-64
2021/04/10 12:26:42;;;;;;;4.80;1.90;;;;;;;;;;4985302;28;20458;-63
2021/04/10 12:29:09;;;;;;;5.13;2.00;;;;;;;;;;4994958;28;20833;-63
2021/04/10 12:31:36;;;;;;;4.67;1.70;;;;;;;;;;4986109;28;20527;-64
2021/04/10 12:34:02;;;;;;;4.53;1.90;;;;;;;;;;4976465;28;20497;-64
2021/04/10 12:36:30;;;;;;;3.27;1.80;;;;;;;;;;4983459;28;20476;-64
2021/04/10 12:38:57;;;;;;;4.77;1.80;;;;;;;;;;4995524;28;20526;-64
2021/04/10 12:41:24;;;;;;;4.63;2.20;;;;;;;;;;4988614;28;20447;-63
2021/04/10 12:43:51;;;;;;;2.90;1.73;;;;;;;;;;4976812;28;20459;-63
2021/04/10 12:46:19;;;;;;;5.43;2.00;;;;;;;;;;4977577;28;20451;-63
2021/04/10 12:48:46;;;;;;;4.40;1.40;;;;;;;;;;4975277;28;20487;-64
2021/04/10 12:51:13;;;;;;;6.53;2.70;;;;;;;;;;4994091;28;20482;-63
2021/04/10 12:53:40;;;;;;;2.13;1.50;;;;;;;;;;4994248;28;20543;-63
2021/04/10 12:56:07;;;;;;;4.17;1.53;;;;;;;;;;4993924;28;20455;-63
2021/04/10 12:58:34;;;;;;;3.30;1.93;;;;;;;;;;4993758;28;20892;-63
2021/04/10 13:01:03;;;;;;;4.27;1.67;;;;;;;;;;4993700;28;20850;-64
2021/04/10 13:03:30;;;;;;;3.47;1.60;;;;;;;;;;4989308;28;20479;-63
2021/04/10 13:05:57;;;;;;;4.23;2.00;;;;;;;;;;4991159;28;20474;-63
2021/04/10 13:08:23;;;;;;;5.53;2.50;;;;;;;;;;4996027;28;20581;-62
2021/04/10 13:10:50;;;;;;;4.87;2.27;;;;;;;;;;4983022;28;20486;-62
2021/04/10 13:13:16;;;;;;;4.33;2.33;;;;;;;;;;4986756;28;20462;-62
2021/04/10 13:15:43;;;;;;;4.17;2.10;;;;;;;;;;4990728;28;20561;-62
2021/04/10 13:18:10;;;;;;;5.63;2.00;;;;;;;;;;4994610;28;20450;-62
2021/04/10 13:20:37;;;;;;;5.73;2.00;;;;;;;;;;4992188;28;20447;-62
2021/04/10 13:23:04;;;;;;;3.30;2.07;;;;;;;;;;4994805;28;20537;-63
2021/04/10 13:25:30;;;;;;;5.03;2.57;;;;;;;;;;4990772;28;20478;-62
2021/04/10 13:27:57;;;;;;;3.10;1.90;;;;;;;;;;4981218;28;20481;-62
2021/04/10 13:30:24;;;;;;;3.63;1.63;;;;;;;;;;4983646;28;20548;-62
2021/04/10 13:32:51;;;;;;;4.03;2.20;;;;;;;;;;4994774;28;20533;-62
2021/04/10 13:35:18;;;;;;;5.30;2.47;;;;;;;;;;4990464;28;20485;-64
2021/04/10 13:37:45;;;;;;;3.40;2.47;;;;;;;;;;4993200;28;20509;-64
2021/04/10 13:40:12;;;;;;;4.07;2.33;;;;;;;;;;4982279;28;20455;-63
2021/04/10 13:42:38;;;;;;;3.93;2.03;;;;;;;;;;4974281;28;20946;-64
2021/04/10 13:45:05;;;;;;;3.80;2.53;;;;;;;;;;4988892;28;20479;-63
2021/04/10 13:47:32;;;;;;;5.13;2.07;;;;;;;;;;4993376;28;21000;-63
2021/04/10 13:49:59;;;;;;;5.63;2.80;;;;;;;;;;4990016;28;20492;-64
2021/04/10 13:52:26;;;;;;;3.87;2.53;;;;;;;;;;4979390;28;20458;-64
2021/04/10 13:54:53;;;;;;;3.43;2.50;;;;;;;;;;4989443;28;20582;-63
2021/04/10 13:57:19;;;;;;;3.13;2.53;;;;;;;;;;4981338;28;20989;-63
2021/04/10 13:59:46;;;;;;;3.23;2.50;;;;;;;;;;4975374;28;20439;-63
2021/04/10 14:02:13;;;;;;;7.17;2.60;;;;;;;;;;4992427;28;20454;-64
2021/04/10 14:04:58;;;;;;;4.67;2.60;;;;;;;;;;4990374;28;20525;-63
2021/04/10 14:07:26;;;;;;;6.20;3.00;;;;;;;;;;4990655;28;20459;-64
2021/04/10 14:09:52;;;;;;;4.47;2.23;;;;;;;;;;4974153;28;20483;-64
2021/04/10 14:12:19;;;;;;;6.87;2.70;;;;;;;;;;4987351;28;20446;-64
2021/04/10 14:14:46;;;;;;;4.40;3.03;;;;;;;;;;4992503;28;20492;-64
2021/04/10 14:17:12;;;;;;;4.50;2.77;;;;;;;;;;4986139;28;20466;-64
2021/04/10 14:19:39;;;;;;;4.47;2.77;;;;;;;;;;4992804;28;20473;-64
2021/04/10 14:22:06;;;;;;;3.37;3.00;;;;;;;;;;4992173;28;20450;-63
2021/04/10 14:24:33;;;;;;;5.40;3.10;;;;;;;;;;4976600;28;20483;-64
2021/04/10 14:27:00;;;;;;;5.20;3.40;;;;;;;;;;4985696;28;20549;-63
2021/04/10 14:29:26;;;;;;;4.00;2.37;;;;;;;;;;4973447;28;20459;-63
2021/04/10 14:31:53;;;;;;;4.50;2.80;;;;;;;;;;4981571;28;20450;-63
2021/04/10 14:34:20;;;;;;;3.30;2.30;;;;;;;;;;4986421;28;20498;-64
2021/04/10 14:36:46;;;;;;;4.70;2.97;;;;;;;;;;4991469;28;20461;-64
2021/04/10 14:39:13;;;;;;;4.80;3.57;;;;;;;;;;4993268;28;20454;-64
2021/04/10 14:41:41;;;;;;;4.97;2.53;;;;;;;;;;4989731;28;20494;-63
2021/04/10 14:44:07;;;;;;;3.83;3.03;;;;;;;;;;4987407;28;20487;-64